createdAt,value
2022-12-12T00:01:02.828Z,33.30
2022-12-12T00:03:31.053Z,28.50
2022-12-12T00:05:57.885Z,32.77
2022-12-12T00:08:24.445Z,31.30
2022-12-12T00:10:50.984Z,29.27
2022-12-12T00:13:17.521Z,31.17
2022-12-12T00:15:44.051Z,33.40
2022-12-12T00:18:10.575Z,31.57
2022-12-12T00:20:37.218Z,31.87
2022-12-12T00:23:04.926Z,30.93
2022-12-12T00:25:31.435Z,30.07
2022-12-12T00:27:58.007Z,34.43
2022-12-12T00:30:24.590Z,30.77
2022-12-12T00:32:51.154Z,28.57
2022-12-12T00:35:17.690Z,33.07
2022-12-12T00:37:44.226Z,35.30
2022-12-12T00:40:11.742Z,31.33
2022-12-12T00:42:38.254Z,34.23
2022-12-12T00:45:05.097Z,32.40
2022-12-12T00:47:31.563Z,32.13
2022-12-12T00:49:58.056Z,32.93
2022-12-12T00:52:24.596Z,31.47
2022-12-12T00:54:51.104Z,36.00
2022-12-12T00:57:17.601Z,33.07
2022-12-12T00:59:44.121Z,32.20
2022-12-12T01:02:10.873Z,31.47
2022-12-12T01:04:37.346Z,33.23
2022-12-12T01:07:05.973Z,29.57
2022-12-12T01:09:32.744Z,32.07
2022-12-12T01:11:59.253Z,28.57
2022-12-12T01:14:25.784Z,33.20
2022-12-12T01:16:52.312Z,34.83
2022-12-12T01:19:18.859Z,32.27
2022-12-12T01:21:45.578Z,33.53
2022-12-12T01:24:12.092Z,34.50
2022-12-12T01:26:38.589Z,32.37
2022-12-12T01:29:05.049Z,33.50
2022-12-12T01:31:31.579Z,33.67
2022-12-12T01:33:58.173Z,30.57
2022-12-12T01:36:24.800Z,34.13
2022-12-12T01:38:54.325Z,31.77
2022-12-12T01:41:21.944Z,28.30
2022-12-12T01:43:48.594Z,31.33
2022-12-12T01:46:33.612Z,33.47
2022-12-12T01:49:09.141Z,36.00
2022-12-12T01:51:39.510Z,33.80
2022-12-12T01:54:11.350Z,35.80
2022-12-12T01:56:41.475Z,35.80
2022-12-12T01:59:12.580Z,35.63
2022-12-12T02:01:40.289Z,36.03
2022-12-12T02:04:08.837Z,36.00
2022-12-12T02:06:35.698Z,39.17
2022-12-12T02:09:06.984Z,35.43
2022-12-12T02:11:37.878Z,37.80
2022-12-12T02:14:04.482Z,37.43
2022-12-12T02:16:49.656Z,41.13
2022-12-12T02:19:53.023Z,35.83
2022-12-12T02:22:38.477Z,38.27
2022-12-12T02:25:42.726Z,37.67
2022-12-12T02:28:24.556Z,38.43
2022-12-12T02:31:19.689Z,33.07
2022-12-12T02:34:13.714Z,35.27
2022-12-12T02:36:57.747Z,38.60
2022-12-12T02:40:01.420Z,35.30
2022-12-12T02:42:43.176Z,37.47
2022-12-12T02:45:20.448Z,41.73
2022-12-12T02:47:53.524Z,40.80
2022-12-12T02:50:23.538Z,39.27
2022-12-12T02:52:50.470Z,38.40
2022-12-12T02:55:18.526Z,39.17
2022-12-12T02:57:45.418Z,34.80
2022-12-12T03:00:18.019Z,35.13
2022-12-12T03:03:23.591Z,38.20
2022-12-12T03:06:42.407Z,36.13
2022-12-12T03:09:27.903Z,37.23
2022-12-12T03:12:28.607Z,45.00
2022-12-12T03:15:02.421Z,39.00
2022-12-12T03:17:43.711Z,42.30
2022-12-12T03:20:43.406Z,37.70
2022-12-12T03:23:14.929Z,40.90
2022-12-12T03:25:55.019Z,43.03
2022-12-12T03:28:31.854Z,36.90
2022-12-12T03:31:03.190Z,40.23
2022-12-12T03:33:53.028Z,34.73
2022-12-12T03:36:28.347Z,37.33
2022-12-12T03:39:01.557Z,42.13
2022-12-12T03:41:37.030Z,36.43
2022-12-12T03:44:10.390Z,39.30
2022-12-12T03:46:52.146Z,38.17
2022-12-12T03:49:34.626Z,41.97
2022-12-12T03:52:19.904Z,39.77
2022-12-12T03:54:52.137Z,44.27
2022-12-12T03:57:28.814Z,50.70
2022-12-12T04:00:02.057Z,41.83
2022-12-12T04:02:34.904Z,45.47
2022-12-12T04:05:06.272Z,44.47
2022-12-12T04:07:40.255Z,39.80
2022-12-12T04:10:25.954Z,40.07
2022-12-12T04:13:14.579Z,42.47
2022-12-12T04:15:59.783Z,44.77
2022-12-12T04:18:26.251Z,43.53
2022-12-12T04:21:26.718Z,43.70
2022-12-12T04:24:11.683Z,48.63
2022-12-12T04:26:42.509Z,41.03
2022-12-12T04:29:27.592Z,38.03
2022-12-12T04:32:18.454Z,37.90
2022-12-12T04:35:00.134Z,44.67
2022-12-12T04:37:42.067Z,40.70
2022-12-12T04:40:23.487Z,40.33
2022-12-12T04:42:59.250Z,44.63
2022-12-12T04:45:31.497Z,44.53
2022-12-12T04:48:00.078Z,46.13
2022-12-12T04:50:30.400Z,55.40
2022-12-12T04:53:00.877Z,37.47
2022-12-12T04:55:32.868Z,42.77
2022-12-12T04:57:59.518Z,42.63
2022-12-12T05:00:33.627Z,41.43
2022-12-12T05:03:24.469Z,41.10
2022-12-12T05:05:54.865Z,40.37
2022-12-12T05:08:27.751Z,37.77
2022-12-12T05:10:56.560Z,42.93
2022-12-12T05:13:31.597Z,39.63
2022-12-12T05:16:01.426Z,40.97
2022-12-12T05:18:28.110Z,42.40
2022-12-12T05:20:55.168Z,43.23
2022-12-12T05:23:21.904Z,40.70
2022-12-12T05:25:48.421Z,46.93
2022-12-12T05:28:14.932Z,40.40
2022-12-12T05:30:41.391Z,45.10
2022-12-12T05:33:07.923Z,42.57
2022-12-12T05:35:34.420Z,44.80
2022-12-12T05:38:04.547Z,46.37
2022-12-12T05:40:32.171Z,44.57
2022-12-12T05:42:58.730Z,46.93
2022-12-12T05:45:25.209Z,47.07
2022-12-12T05:47:51.704Z,43.23
2022-12-12T05:50:18.210Z,43.27
2022-12-12T05:52:45.155Z,44.63
2022-12-12T05:55:11.846Z,45.40
2022-12-12T05:57:38.672Z,44.13
2022-12-12T06:00:05.690Z,38.07
2022-12-12T06:02:32.277Z,48.90
2022-12-12T06:04:58.730Z,46.63
2022-12-12T06:07:25.280Z,41.43
2022-12-12T06:09:51.760Z,51.47
2022-12-12T06:12:18.337Z,48.10
2022-12-12T06:14:44.829Z,44.97
2022-12-12T06:17:11.296Z,45.83
2022-12-12T06:19:37.763Z,51.83
2022-12-12T06:22:04.579Z,43.63
2022-12-12T06:24:31.086Z,41.10
2022-12-12T06:26:57.572Z,41.33
2022-12-12T06:29:24.275Z,42.70
2022-12-12T06:31:50.730Z,45.00
2022-12-12T06:34:17.183Z,42.33
2022-12-12T06:36:43.834Z,47.80
2022-12-12T06:39:10.433Z,51.03
2022-12-12T06:41:37.078Z,48.93
2022-12-12T06:44:04.431Z,40.00
2022-12-12T06:46:31.021Z,47.87
2022-12-12T06:48:58.535Z,47.10
2022-12-12T06:51:29.058Z,53.00
2022-12-12T06:53:56.536Z,47.80
2022-12-12T06:56:25.522Z,52.60
2022-12-12T06:58:53.818Z,47.50
2022-12-12T07:01:23.590Z,50.37
2022-12-12T07:03:51.838Z,46.90
2022-12-12T07:06:20.644Z,51.53
2022-12-12T07:08:48.069Z,43.40
2022-12-12T07:11:20.731Z,49.13
2022-12-12T07:13:47.543Z,51.83
2022-12-12T07:16:14.740Z,48.43
2022-12-12T07:18:42.056Z,51.27
2022-12-12T07:21:13.413Z,49.83
2022-12-12T07:23:40.024Z,47.87
2022-12-12T07:26:13.543Z,52.40
2022-12-12T07:28:40.369Z,48.23
2022-12-12T07:31:08.744Z,54.33
2022-12-12T07:33:43.664Z,42.17
2022-12-12T07:36:11.812Z,48.57
2022-12-12T07:38:38.476Z,42.27
2022-12-12T07:41:08.530Z,46.53
2022-12-12T07:43:42.838Z,46.50
2022-12-12T07:46:12.026Z,44.47
2022-12-12T07:48:38.531Z,44.47
2022-12-12T07:51:05.213Z,44.97
2022-12-12T07:53:32.123Z,45.27
2022-12-12T07:55:58.744Z,58.10
2022-12-12T07:58:25.489Z,61.10
2022-12-12T08:00:52.237Z,47.33
2022-12-12T08:03:18.797Z,46.27
2022-12-12T08:05:45.391Z,49.63
2022-12-12T08:08:12.086Z,49.70
2022-12-12T08:10:40.350Z,45.47
2022-12-12T08:13:07.431Z,48.40
2022-12-12T08:15:34.315Z,45.13
2022-12-12T08:18:00.902Z,46.70
2022-12-12T08:20:27.409Z,46.20
2022-12-12T08:22:54.156Z,47.93
2022-12-12T08:25:20.603Z,43.67
2022-12-12T08:27:47.154Z,43.70
2022-12-12T08:30:13.829Z,50.57
2022-12-12T08:32:40.357Z,43.60
2022-12-12T08:35:07.340Z,46.30
2022-12-12T08:37:34.266Z,44.03
2022-12-12T08:40:01.091Z,51.30
2022-12-12T08:42:27.585Z,48.23
2022-12-12T08:44:54.074Z,47.93
2022-12-12T08:47:20.521Z,48.83
2022-12-12T08:49:46.983Z,48.67
2022-12-12T08:52:13.469Z,41.97
2022-12-12T08:54:39.979Z,39.30
2022-12-12T08:57:06.446Z,42.50
2022-12-12T08:59:33.037Z,43.77
2022-12-12T09:02:00.916Z,43.20
2022-12-12T09:04:27.620Z,40.73
2022-12-12T09:06:55.180Z,41.07
2022-12-12T09:09:21.654Z,42.83
2022-12-12T09:11:48.072Z,39.07
2022-12-12T09:14:14.533Z,39.77
2022-12-12T09:16:41.219Z,38.90
2022-12-12T09:19:09.681Z,37.63
2022-12-12T09:21:36.269Z,38.83
2022-12-12T09:24:02.980Z,36.60
2022-12-12T09:26:29.600Z,40.47
2022-12-12T09:28:56.086Z,39.53
2022-12-12T09:31:22.689Z,40.10
2022-12-12T09:33:49.373Z,38.50
2022-12-12T09:36:16.597Z,36.90
2022-12-12T09:38:43.745Z,39.57
2022-12-12T09:41:12.726Z,40.30
2022-12-12T09:44:03.591Z,46.83
2022-12-12T09:46:34.859Z,37.63
2022-12-12T09:49:27.852Z,40.97
2022-12-12T09:51:56.506Z,39.63
2022-12-12T09:54:27.478Z,42.47
2022-12-12T09:57:24.602Z,37.97
2022-12-12T10:00:02.022Z,43.30
2022-12-12T10:02:36.607Z,42.07
2022-12-12T10:05:27.142Z,38.13
2022-12-12T10:07:53.799Z,39.93
2022-12-12T10:10:39.843Z,39.20
2022-12-12T10:13:15.515Z,43.93
2022-12-12T10:15:46.794Z,41.57
2022-12-12T10:18:23.491Z,39.83
2022-12-12T10:20:53.976Z,34.43
2022-12-12T10:23:49.012Z,31.47
2022-12-12T10:26:18.039Z,28.70
2022-12-12T10:28:45.258Z,30.00
2022-12-12T10:31:44.382Z,34.17
2022-12-12T10:34:32.266Z,30.37
2022-12-12T10:37:14.305Z,55.90
2022-12-12T10:39:56.405Z,139.40
2022-12-12T10:42:44.195Z,39.07
2022-12-12T10:45:28.911Z,34.27
2022-12-12T10:47:55.423Z,36.30
2022-12-12T10:50:43.207Z,37.10
2022-12-12T10:53:11.945Z,36.17
2022-12-12T10:55:58.649Z,36.47
2022-12-12T10:58:39.330Z,32.57
2022-12-12T11:01:32.882Z,34.53
2022-12-12T11:04:05.403Z,34.50
2022-12-12T11:06:36.897Z,39.30
2022-12-12T11:09:09.441Z,41.07
2022-12-12T11:11:36.164Z,37.20
2022-12-12T11:14:20.049Z,37.80
2022-12-12T11:16:46.582Z,39.83
2022-12-12T11:19:20.674Z,37.90
2022-12-12T11:21:48.743Z,38.13
2022-12-12T11:24:27.411Z,37.70
2022-12-12T11:27:04.624Z,33.87
2022-12-12T11:29:40.145Z,36.70
2022-12-12T11:32:19.615Z,35.13
2022-12-12T11:34:50.531Z,34.13
2022-12-12T11:37:27.002Z,37.57
2022-12-12T11:39:58.879Z,31.63
2022-12-12T11:42:29.105Z,32.57
2022-12-12T11:45:09.871Z,32.30
2022-12-12T11:47:45.871Z,35.33
2022-12-12T11:50:22.975Z,35.03
2022-12-12T11:52:51.291Z,35.27
2022-12-12T11:55:24.756Z,36.30
2022-12-12T11:58:17.534Z,34.60
2022-12-12T12:00:56.581Z,52.27
2022-12-12T12:04:05.749Z,46.70
2022-12-12T12:06:51.450Z,43.23
2022-12-12T12:09:28.660Z,39.27
2022-12-12T12:12:12.456Z,36.83
2022-12-12T12:14:45.095Z,37.80
2022-12-12T12:17:22.491Z,37.03
2022-12-12T12:20:02.784Z,35.13
2022-12-12T12:22:50.081Z,37.30
2022-12-12T12:25:55.645Z,37.20
2022-12-12T12:28:31.202Z,35.93
2022-12-12T12:31:11.140Z,42.07
2022-12-12T12:34:11.789Z,38.93
2022-12-12T12:37:07.946Z,36.97
2022-12-12T12:39:59.915Z,39.90
2022-12-12T12:43:02.494Z,41.63
2022-12-12T12:45:45.560Z,41.97
2022-12-12T12:48:20.351Z,42.87
2022-12-12T12:50:55.551Z,39.27
2022-12-12T12:53:31.939Z,41.40
2022-12-12T12:56:03.963Z,40.20
2022-12-12T12:58:44.219Z,42.20
2022-12-12T13:01:23.736Z,38.77
2022-12-12T13:04:14.717Z,36.43
2022-12-12T13:06:41.358Z,38.03
2022-12-12T13:09:42.093Z,43.03
2022-12-12T13:12:27.484Z,36.43
2022-12-12T13:15:00.869Z,34.30
2022-12-12T13:17:55.415Z,37.40
2022-12-12T13:20:25.467Z,39.70
2022-12-12T13:22:56.394Z,31.67
2022-12-12T13:25:32.156Z,33.70
2022-12-12T13:28:02.157Z,34.37
2022-12-12T13:31:00.427Z,34.67
2022-12-12T13:33:45.918Z,30.17
2022-12-12T13:36:16.968Z,35.07
2022-12-12T13:38:50.947Z,29.73
2022-12-12T13:41:18.026Z,35.57
2022-12-12T13:43:50.131Z,33.77
2022-12-12T13:46:29.097Z,34.70
2022-12-12T13:49:07.815Z,32.30
2022-12-12T13:51:40.944Z,34.43
2022-12-12T13:54:12.837Z,36.13
2022-12-12T13:56:45.666Z,42.20
2022-12-12T13:59:27.203Z,35.57
2022-12-12T14:02:01.610Z,34.90
2022-12-12T14:04:34.821Z,36.43
2022-12-12T14:07:14.431Z,35.27
2022-12-12T14:09:48.973Z,35.73
2022-12-12T14:12:31.062Z,43.07
2022-12-12T14:15:01.762Z,35.50
2022-12-12T14:17:32.463Z,38.83
2022-12-12T14:20:04.588Z,38.77
2022-12-12T14:22:37.582Z,41.70
2022-12-12T14:25:17.600Z,43.37
2022-12-12T14:27:50.253Z,38.10
2022-12-12T14:30:39.129Z,43.87
2022-12-12T14:33:17.824Z,40.97
2022-12-12T14:36:02.492Z,43.47
2022-12-12T14:38:55.094Z,37.83
2022-12-12T14:41:32.075Z,37.73
2022-12-12T14:44:37.560Z,42.27
2022-12-12T14:46:48.757Z,46.27
2022-12-12T14:49:17.084Z,43.63
2022-12-12T14:51:47.471Z,46.67
2022-12-12T14:54:17.602Z,39.73
2022-12-12T14:56:52.690Z,42.33
2022-12-12T14:59:25.949Z,44.10
2022-12-12T15:02:06.768Z,43.30
2022-12-12T15:04:38.968Z,44.80
2022-12-12T15:07:22.384Z,44.57
2022-12-12T15:09:49.765Z,42.73
2022-12-12T15:12:19.736Z,47.07
2022-12-12T15:14:49.426Z,45.73
2022-12-12T15:17:30.599Z,45.83
2022-12-12T15:20:07.205Z,44.27
2022-12-12T15:22:36.560Z,62.83
2022-12-12T15:25:46.729Z,75.73
2022-12-12T15:28:19.511Z,53.13
2022-12-12T15:30:50.262Z,45.27
2022-12-12T15:33:20.960Z,48.63
2022-12-12T15:36:07.549Z,50.60
2022-12-12T15:38:34.474Z,51.17
2022-12-12T15:41:09.567Z,51.40
2022-12-12T15:43:39.067Z,48.03
2022-12-12T15:46:14.934Z,90.80
2022-12-12T15:48:46.656Z,54.87
2022-12-12T15:51:21.046Z,46.93
2022-12-12T15:53:52.687Z,50.33
2022-12-12T15:56:19.169Z,48.87
2022-12-12T15:58:48.529Z,48.57
2022-12-12T16:01:20.839Z,86.33
2022-12-12T16:04:09.330Z,57.40
2022-12-12T16:06:47.186Z,55.57
2022-12-12T16:09:17.994Z,49.87
2022-12-12T16:11:50.647Z,52.67
2022-12-12T16:14:40.783Z,47.27
2022-12-12T16:17:13.914Z,47.83
2022-12-12T16:19:55.965Z,56.27
2022-12-12T16:22:28.422Z,50.93
2022-12-12T16:25:10.907Z,52.70
2022-12-12T16:27:38.090Z,50.00
2022-12-12T16:30:05.776Z,52.33
2022-12-12T16:32:32.380Z,49.97
2022-12-12T16:34:59.116Z,52.67
2022-12-12T16:37:29.116Z,52.03
2022-12-12T16:39:55.631Z,56.27
2022-12-12T16:42:24.202Z,52.73
2022-12-12T16:44:55.783Z,54.37
2022-12-12T16:47:24.965Z,54.33
2022-12-12T16:49:52.047Z,51.57
2022-12-12T16:52:20.446Z,51.37
2022-12-12T16:54:53.208Z,51.23
2022-12-12T16:57:21.910Z,51.30
2022-12-12T16:59:48.450Z,41.73
2022-12-12T17:02:21.446Z,47.77
2022-12-12T17:04:50.226Z,53.13
2022-12-12T17:07:16.936Z,52.93
2022-12-12T17:09:43.749Z,52.97
2022-12-12T17:12:13.371Z,52.13
2022-12-12T17:14:40.347Z,56.70
2022-12-12T17:17:27.078Z,56.80
2022-12-12T17:19:53.698Z,50.40
2022-12-12T17:22:20.237Z,51.40
2022-12-12T17:24:46.893Z,53.27
2022-12-12T17:27:13.462Z,52.13
2022-12-12T17:29:39.938Z,56.10
2022-12-12T17:32:06.543Z,58.63
2022-12-12T17:34:33.154Z,51.40
2022-12-12T17:36:59.786Z,60.97
2022-12-12T17:39:37.458Z,49.90
2022-12-12T17:42:04.239Z,52.40
2022-12-12T17:44:31.049Z,57.30
2022-12-12T17:46:57.584Z,57.53
2022-12-12T17:49:24.072Z,47.53
2022-12-12T17:51:50.533Z,59.67
2022-12-12T17:54:17.092Z,60.17
2022-12-12T17:56:43.526Z,51.30
2022-12-12T17:59:10.532Z,56.27
2022-12-12T18:01:37.511Z,52.70
2022-12-12T18:04:06.958Z,60.57
2022-12-12T18:06:34.728Z,61.97
2022-12-12T18:09:01.759Z,57.73
2022-12-12T18:11:31.570Z,54.73
2022-12-12T18:14:00.780Z,59.60
2022-12-12T18:16:30.956Z,60.70
2022-12-12T18:18:59.339Z,58.40
2022-12-12T18:21:59.134Z,55.97
2022-12-12T18:24:16.157Z,56.27
2022-12-12T18:26:44.366Z,50.87
2022-12-12T18:29:13.187Z,55.53
2022-12-12T18:31:39.806Z,53.17
2022-12-12T18:34:06.589Z,58.40
2022-12-12T18:36:33.267Z,58.60
2022-12-12T18:39:03.025Z,63.10
2022-12-12T18:41:31.633Z,51.97
2022-12-12T18:43:58.830Z,52.70
2022-12-12T18:46:27.287Z,57.37
2022-12-12T18:48:54.141Z,58.30
2022-12-12T18:51:25.443Z,54.77
2022-12-12T18:53:54.065Z,55.93
2022-12-12T18:56:24.274Z,65.60
2022-12-12T18:58:53.259Z,58.87
2022-12-12T19:01:22.458Z,62.60
2022-12-12T19:03:52.000Z,71.00
2022-12-12T19:06:24.994Z,76.03
2022-12-12T19:08:53.984Z,65.97
2022-12-12T19:11:20.630Z,79.73
2022-12-12T19:13:47.281Z,72.77
2022-12-12T19:16:17.315Z,85.60
2022-12-12T19:18:44.996Z,86.30
2022-12-12T19:21:14.682Z,79.97
2022-12-12T19:23:42.438Z,105.03
2022-12-12T19:26:13.054Z,96.33
2022-12-12T19:28:39.963Z,97.17
2022-12-12T19:31:09.624Z,104.10
2022-12-12T19:33:36.516Z,93.20
2022-12-12T19:36:10.950Z,91.57
2022-12-12T19:38:37.596Z,86.53
2022-12-12T19:41:08.886Z,93.83
2022-12-12T19:43:35.641Z,98.37
2022-12-12T19:46:11.233Z,100.87
2022-12-12T19:48:38.328Z,101.03
2022-12-12T19:51:17.355Z,89.70
2022-12-12T19:53:46.430Z,93.00
2022-12-12T19:56:14.999Z,99.73
2022-12-12T19:58:42.637Z,93.77
2022-12-12T20:01:11.932Z,95.37
2022-12-12T20:03:38.454Z,85.10
2022-12-12T20:06:08.367Z,97.00
2022-12-12T20:08:36.396Z,100.60
2022-12-12T20:11:06.678Z,99.77
2022-12-12T20:13:33.521Z,103.50
2022-12-12T20:16:10.725Z,99.40
2022-12-12T20:18:37.885Z,112.67
2022-12-12T20:21:04.927Z,105.87
2022-12-12T20:23:33.931Z,107.50
2022-12-12T20:26:10.890Z,101.10
2022-12-12T20:28:37.606Z,107.53
2022-12-12T20:31:13.708Z,94.20
2022-12-12T20:33:40.283Z,117.27
2022-12-12T20:36:10.155Z,101.63
2022-12-12T20:38:37.964Z,97.17
2022-12-12T20:41:13.086Z,106.23
2022-12-12T20:43:40.365Z,91.07
2022-12-12T20:46:15.901Z,106.00
2022-12-12T20:48:43.047Z,97.63
2022-12-12T20:51:45.600Z,110.60
2022-12-12T20:54:00.661Z,93.97
2022-12-12T20:56:27.884Z,97.97
2022-12-12T20:58:56.274Z,100.13
2022-12-12T21:01:25.239Z,102.87
2022-12-12T21:03:51.929Z,96.13
2022-12-12T21:06:28.658Z,98.23
2022-12-12T21:08:55.460Z,95.80
2022-12-12T21:11:25.269Z,101.60
2022-12-12T21:13:55.960Z,95.63
2022-12-12T21:16:25.638Z,94.63
2022-12-12T21:18:57.770Z,89.23
2022-12-12T21:21:25.234Z,90.30
2022-12-12T21:23:52.989Z,95.90
2022-12-12T21:26:28.235Z,92.17
2022-12-12T21:28:56.605Z,104.70
2022-12-12T21:31:27.595Z,96.13
2022-12-12T21:33:54.484Z,93.63
2022-12-12T21:36:23.530Z,100.20
2022-12-12T21:38:51.914Z,99.90
2022-12-12T21:41:21.073Z,96.30
2022-12-12T21:43:48.337Z,92.93
2022-12-12T21:46:23.989Z,89.07
2022-12-12T21:49:09.792Z,90.03
2022-12-12T21:51:36.794Z,90.37
2022-12-12T21:54:04.528Z,95.60
2022-12-12T21:56:31.255Z,93.33
2022-12-12T21:58:58.979Z,93.30
2022-12-12T22:01:25.993Z,97.23
2022-12-12T22:03:53.779Z,95.00
2022-12-12T22:06:26.565Z,98.23
2022-12-12T22:08:57.007Z,93.03
2022-12-12T22:11:40.906Z,96.97
2022-12-12T22:14:10.947Z,93.83
2022-12-12T22:16:37.915Z,100.87
2022-12-12T22:19:08.817Z,101.67
2022-12-12T22:21:36.721Z,98.40
2022-12-12T22:24:04.190Z,98.67
2022-12-12T22:26:37.203Z,97.50
2022-12-12T22:29:06.495Z,100.13
2022-12-12T22:31:35.863Z,103.80
2022-12-12T22:34:04.644Z,95.27
2022-12-12T22:36:34.192Z,91.87
2022-12-12T22:39:01.630Z,90.63
2022-12-12T22:41:29.657Z,91.17
2022-12-12T22:43:58.889Z,98.17
2022-12-12T22:46:26.900Z,95.47
2022-12-12T22:48:55.451Z,100.23
2022-12-12T22:51:24.893Z,95.60
2022-12-12T22:53:51.811Z,90.67
2022-12-12T22:56:18.315Z,94.83
2022-12-12T22:58:44.808Z,89.90
2022-12-12T23:01:14.184Z,89.83
2022-12-12T23:03:41.516Z,93.47
2022-12-12T23:06:13.347Z,83.63
2022-12-12T23:08:40.993Z,91.50
2022-12-12T23:11:17.359Z,85.93
2022-12-12T23:13:45.165Z,92.53
2022-12-12T23:16:20.808Z,97.13
2022-12-12T23:18:48.494Z,87.70
2022-12-12T23:21:17.708Z,88.33
2022-12-12T23:23:45.308Z,92.03
2022-12-12T23:26:17.341Z,83.13
2022-12-12T23:28:45.119Z,96.37
2022-12-12T23:31:25.583Z,90.27
2022-12-12T23:33:53.755Z,79.20
2022-12-12T23:36:20.886Z,92.00
2022-12-12T23:38:47.347Z,86.57
2022-12-12T23:41:15.812Z,90.90
2022-12-12T23:43:42.611Z,75.53
2022-12-12T23:46:28.689Z,83.83
2022-12-12T23:49:01.485Z,84.73
2022-12-12T23:51:30.945Z,88.33
2022-12-12T23:53:59.121Z,79.57
2022-12-12T23:56:26.774Z,80.03
2022-12-12T23:58:54.662Z,82.50
